Time;durP1;ratioP1;P1;durP2;ratioP2;P2;SDS_P1;SDS_P2;PMS_P1;PMS_P2;Temp;Humidity;BMP_temperature;BMP_pressure;BME280_temperature;BME280_humidity;BME280_pressure;Samples;Min_cycle;Max_cycle;Signal;HPM_P1;HPM_P2
2022/04/03 00:02:03;;;;;;;7.40;2.60;;;;;;;-1.43;83.51;99297.91;5028111;28;20199;-49
2022/04/03 00:04:48;;;;;;;7.60;2.50;;;;;;;-1.42;83.11;99303.06;5026992;28;20057;-50
2022/04/03 00:07:32;;;;;;;7.85;3.25;;;;;;;-1.62;85.13;99303.63;5027318;28;20056;-50
2022/04/03 00:10:17;;;;;;;9.55;3.85;;;;;;;-1.55;84.47;99310.56;5027659;28;20039;-50
2022/04/03 00:13:05;;;;;;;9.35;3.40;;;;;;;-1.52;84.53;99315.75;5026867;28;20042;-50
2022/04/03 00:15:49;;;;;;;11.80;4.10;;;;;;;-1.56;83.92;99304.59;5025967;28;20045;-50
2022/04/03 00:18:34;;;;;;;10.30;3.75;;;;;;;-1.55;84.65;99308.88;5026281;28;20078;-50
2022/04/03 00:21:20;;;;;;;9.73;3.45;;;;;;;-1.65;84.75;99307.00;5026503;28;20045;-50
2022/04/03 00:24:04;;;;;;;11.15;3.60;;;;;;;-1.57;84.25;99305.41;5026575;28;20120;-50
2022/04/03 00:26:48;;;;;;;6.13;3.03;;;;;;;-1.68;84.49;99304.38;5025854;28;20523;-50
2022/04/03 00:29:33;;;;;;;8.50;2.78;;;;;;;-1.70;84.75;99300.91;5025311;28;20045;-50
2022/04/03 00:32:18;;;;;;;6.18;2.50;;;;;;;-1.65;84.66;99309.56;5027426;28;20042;-50
2022/04/03 00:35:04;;;;;;;10.38;3.15;;;;;;;-1.66;84.16;99307.81;5027069;28;20065;-50
2022/04/03 00:37:50;;;;;;;4.97;2.13;;;;;;;-1.70;85.04;99311.19;5025613;28;20049;-50
2022/04/03 00:40:34;;;;;;;8.30;2.50;;;;;;;-1.61;83.80;99305.34;5026373;28;20404;-50
2022/04/03 00:43:18;;;;;;;6.30;2.55;;;;;;;-1.69;84.53;99305.19;5026442;28;20041;-50
2022/04/03 00:46:05;;;;;;;9.57;2.60;;;;;;;-1.71;83.72;99304.34;5027385;28;20069;-50
2022/04/03 00:48:52;;;;;;;6.90;3.17;;;;;;;-1.69;84.01;99306.09;5026881;28;20053;-50
2022/04/03 00:51:38;;;;;;;10.23;2.55;;;;;;;-1.70;83.71;99306.06;5027508;28;20045;-50
2022/04/03 00:54:23;;;;;;;6.28;2.83;;;;;;;-1.85;84.02;99296.41;5026592;28;20555;-49
2022/04/03 00:57:08;;;;;;;7.28;2.78;;;;;;;-1.74;83.61;99314.56;5026756;28;20050;-49
2022/04/03 00:59:55;;;;;;;6.05;2.65;;;;;;;-1.82;83.33;99296.47;5026121;28;20628;-49
2022/04/03 01:02:40;;;;;;;6.70;2.47;;;;;;;-1.77;83.77;99304.22;5026730;28;20496;-49
2022/04/03 01:05:25;;;;;;;8.80;2.35;;;;;;;-1.83;83.87;99301.56;5025889;28;20056;-49
2022/04/03 01:08:09;;;;;;;7.15;3.47;;;;;;;-1.89;84.10;99316.00;5026468;28;20057;-50
2022/04/03 01:10:54;;;;;;;10.77;3.28;;;;;;;-1.82;83.71;99305.84;5027347;28;20479;-50
2022/04/03 01:13:50;;;;;;;15.05;5.95;;;;;;;-1.83;83.77;99304.13;5026731;28;20131;-50
2022/04/03 01:16:36;;;;;;;13.30;5.57;;;;;;;-1.98;84.77;99312.41;5025249;28;20054;-50
2022/04/03 01:19:20;;;;;;;22.88;8.00;;;;;;;-1.91;84.24;99310.00;5025856;28;20073;-49
2022/04/03 01:22:06;;;;;;;11.57;3.92;;;;;;;-1.91;84.43;99312.56;5025755;28;20049;-49
2022/04/03 01:24:57;;;;;;;12.10;3.95;;;;;;;-1.93;84.63;99315.94;5026205;28;20037;-50
2022/04/03 01:27:42;;;;;;;10.52;3.50;;;;;;;-1.95;84.01;99321.06;5026159;28;20058;-50
2022/04/03 01:30:26;;;;;;;11.15;3.90;;;;;;;-1.91;83.96;99325.41;5026338;28;20049;-50
2022/04/03 01:33:11;;;;;;;10.40;3.50;;;;;;;-2.02;84.46;99321.78;5026100;28;20454;-49
2022/04/03 01:35:55;;;;;;;9.13;3.50;;;;;;;-2.02;84.91;99320.91;5025099;28;20524;-49
2022/04/03 01:38:40;;;;;;;10.32;3.83;;;;;;;-2.05;85.35;99321.72;5026062;28;20046;-49
2022/04/03 01:41:25;;;;;;;10.05;3.22;;;;;;;-2.03;84.39;99321.75;5026507;28;20041;-50
2022/04/03 01:44:12;;;;;;;7.57;3.17;;;;;;;-2.02;84.70;99329.47;5025488;28;20472;-49
2022/04/03 01:46:56;;;;;;;7.35;3.22;;;;;;;-2.02;84.98;99323.47;5025351;28;20535;-50
2022/04/03 01:49:41;;;;;;;9.75;3.08;;;;;;;-2.05;85.09;99323.41;5026810;28;20093;-49
2022/04/03 01:52:26;;;;;;;9.05;2.75;;;;;;;-2.16;85.62;99323.25;5025375;28;20536;-50
2022/04/03 01:55:10;;;;;;;10.77;2.97;;;;;;;-2.09;85.82;99321.66;5026274;28;20708;-50
2022/04/03 01:57:55;;;;;;;13.48;4.00;;;;;;;-2.21;85.77;99310.34;5025560;28;20038;-50
2022/04/03 02:00:40;;;;;;;14.48;3.63;;;;;;;-2.18;85.72;99319.75;5025770;28;20057;-49
2022/04/03 02:03:26;;;;;;;23.42;8.73;;;;;;;-2.06;85.65;99326.84;5025963;28;20593;-49
2022/04/03 02:06:11;;;;;;;25.05;7.50;;;;;;;-2.14;86.23;99326.72;5023152;28;20049;-50
2022/04/03 02:08:55;;;;;;;19.65;6.60;;;;;;;-2.15;85.84;99323.25;5024944;28;20119;-49
2022/04/03 02:11:39;;;;;;;12.63;5.15;;;;;;;-2.19;86.40;99336.88;5026055;28;20042;-50
2022/04/03 02:14:27;;;;;;;8.00;3.70;;;;;;;-2.20;86.68;99329.16;5025679;28;20617;-49
2022/04/03 02:17:13;;;;;;;7.60;3.13;;;;;;;-2.23;87.07;99329.09;5025992;28;20056;-50
2022/04/03 02:19:58;;;;;;;7.03;3.25;;;;;;;-2.20;86.66;99335.16;5025031;28;20050;-50
2022/04/03 02:22:42;;;;;;;11.48;3.60;;;;;;;-2.27;87.40;99333.31;5024617;28;20060;-50
2022/04/03 02:25:28;;;;;;;9.20;2.97;;;;;;;-2.28;88.03;99339.25;5025568;28;20041;-50
2022/04/03 02:28:13;;;;;;;9.25;2.85;;;;;;;-2.29;87.81;99341.81;5023425;28;20057;-50
2022/04/03 02:30:57;;;;;;;6.53;2.88;;;;;;;-2.32;87.25;99329.78;5025275;28;20045;-49
2022/04/03 02:33:42;;;;;;;11.45;3.08;;;;;;;-2.28;88.02;99338.41;5025331;28;20053;-50
2022/04/03 02:36:26;;;;;;;8.10;2.90;;;;;;;-2.28;88.04;99340.97;5026348;28;20049;-50
2022/04/03 02:39:14;;;;;;;6.80;2.70;;;;;;;-2.25;87.77;99341.88;5026934;28;20060;-49
2022/04/03 02:41:59;;;;;;;9.30;3.17;;;;;;;-2.38;88.93;99345.06;5024164;28;20053;-49
2022/04/03 02:44:43;;;;;;;6.75;2.42;;;;;;;-2.31;88.59;99348.59;5025353;28;20045;-49
2022/04/03 02:47:28;;;;;;;6.60;3.15;;;;;;;-2.33;88.31;99351.16;5024744;28;20054;-50
2022/04/03 02:50:13;;;;;;;8.60;3.80;;;;;;;-2.38;88.73;99356.19;5024108;28;20103;-50
2022/04/03 02:52:57;;;;;;;7.95;4.15;;;;;;;-2.37;88.83;99357.94;5024248;28;20041;-50
2022/04/03 02:55:42;;;;;;;8.32;3.50;;;;;;;-2.46;89.81;99362.00;5024240;28;20088;-50
2022/04/03 02:58:26;;;;;;;10.05;3.13;;;;;;;-2.40;90.17;99363.00;5024995;28;20053;-50
2022/04/03 03:01:11;;;;;;;8.25;3.08;;;;;;;-2.40;89.56;99357.88;5025100;28;20050;-50
2022/04/03 03:03:55;;;;;;;6.53;3.00;;;;;;;-2.59;90.48;99346.38;5025373;28;20491;-50
2022/04/03 03:06:40;;;;;;;7.50;3.28;;;;;;;-2.47;90.87;99360.25;5026145;28;20049;-50
2022/04/03 03:09:25;;;;;;;6.30;3.22;;;;;;;-2.58;91.25;99365.19;5025364;28;20124;-49
2022/04/03 03:12:10;;;;;;;6.88;3.00;;;;;;;-2.51;91.00;99366.16;5025651;28;20064;-50
2022/04/03 03:14:56;;;;;;;7.20;2.83;;;;;;;-2.53;91.36;99367.84;5025346;28;20572;-50
2022/04/03 03:17:42;;;;;;;7.97;2.88;;;;;;;-2.51;91.32;99371.28;5025983;28;20050;-50
2022/04/03 03:20:27;;;;;;;9.05;3.80;;;;;;;-2.51;91.96;99369.59;5024843;28;20049;-50
2022/04/03 03:23:12;;;;;;;8.00;3.28;;;;;;;-2.51;91.82;99373.88;5025380;28;20049;-50
2022/04/03 03:25:56;;;;;;;5.13;3.22;;;;;;;-2.56;92.37;99384.03;5024914;28;20049;-50
2022/04/03 03:28:41;;;;;;;10.20;3.20;;;;;;;-2.62;92.14;99365.97;5024796;28;20049;-50
2022/04/03 03:31:25;;;;;;;9.75;3.55;;;;;;;-2.57;92.78;99382.28;5025026;28;20053;-50
2022/04/03 03:34:10;;;;;;;9.18;2.45;;;;;;;-2.54;92.70;99384.06;5025373;28;20049;-50
2022/04/03 03:36:54;;;;;;;7.75;2.75;;;;;;;-2.51;92.27;99381.56;5025111;28;20147;-50
2022/04/03 03:39:38;;;;;;;8.50;3.03;;;;;;;-2.62;93.68;99383.91;5025356;28;20049;-50
2022/04/03 03:42:24;;;;;;;10.27;4.82;;;;;;;-2.65;93.73;99391.53;5024630;28;20149;-50
2022/04/03 03:45:10;;;;;;;7.82;3.05;;;;;;;-2.61;93.54;99388.19;5025180;28;20042;-50
2022/04/03 03:47:57;;;;;;;6.55;2.78;;;;;;;-2.64;93.88;99391.56;5025190;28;20041;-50
2022/04/03 03:50:41;;;;;;;6.32;2.92;;;;;;;-2.55;93.76;99397.72;5024938;28;20064;-50
2022/04/03 03:53:26;;;;;;;8.18;2.65;;;;;;;-2.68;93.76;99384.63;5023499;28;20433;-50
2022/04/03 03:56:11;;;;;;;12.65;3.30;;;;;;;-2.61;93.87;99396.75;5024467;28;20041;-50
2022/04/03 03:58:55;;;;;;;5.32;2.60;;;;;;;-2.74;94.81;99392.19;5024648;28;20049;-50
2022/04/03 04:01:39;;;;;;;8.48;3.00;;;;;;;-2.76;95.22;99401.56;5024803;28;20053;-50
2022/04/03 04:04:23;;;;;;;6.43;2.70;;;;;;;-2.69;95.19;99407.69;5023613;28;20045;-50
2022/04/03 04:07:08;;;;;;;7.40;2.88;;;;;;;-2.67;94.65;99413.69;5024457;28;20057;-50
2022/04/03 04:09:53;;;;;;;7.15;2.83;;;;;;;-2.69;95.08;99418.81;5024935;28;20053;-51
2022/04/03 04:12:39;;;;;;;9.25;2.90;;;;;;;-2.79;95.28;99419.44;5025088;28;20053;-50
2022/04/03 04:15:23;;;;;;;5.70;2.85;;;;;;;-2.76;95.55;99423.75;5024534;28;20041;-50
2022/04/03 04:18:08;;;;;;;9.25;3.08;;;;;;;-2.69;95.47;99429.06;5024709;28;20057;-50
2022/04/03 04:20:53;;;;;;;6.63;2.25;;;;;;;-2.73;95.82;99432.41;5025262;28;20502;-50
2022/04/03 04:23:37;;;;;;;7.63;2.67;;;;;;;-2.76;96.07;99437.47;5024478;28;20046;-50
2022/04/03 04:26:22;;;;;;;9.40;2.72;;;;;;;-2.76;95.89;99439.13;5023723;28;20124;-50
2022/04/03 04:29:07;;;;;;;8.27;2.85;;;;;;;-2.76;96.17;99441.69;5024390;28;20049;-50
2022/04/03 04:31:52;;;;;;;6.65;2.60;;;;;;;-2.65;95.14;99448.81;5027303;28;20045;-50
2022/04/03 04:34:36;;;;;;;5.18;2.50;;;;;;;-2.72;95.82;99453.78;5027310;28;20041;-50
2022/04/03 04:37:21;;;;;;;16.20;3.67;;;;;;;-2.71;96.62;99461.50;5027214;28;20046;-50
2022/04/03 04:40:05;;;;;;;5.00;2.72;;;;;;;-2.75;96.62;99458.84;5026223;28;20053;-50
2022/04/03 04:42:50;;;;;;;10.63;2.72;;;;;;;-2.74;96.64;99458.84;5027167;28;20049;-50
2022/04/03 04:45:35;;;;;;;7.15;2.33;;;;;;;-2.84;97.77;99457.78;5026811;28;20462;-50
2022/04/03 04:48:20;;;;;;;12.13;3.70;;;;;;;-2.72;97.38;99466.59;5027031;28;20041;-50
2022/04/03 04:51:04;;;;;;;9.30;3.08;;;;;;;-2.74;97.26;99466.53;5026431;28;20097;-50
2022/04/03 04:53:48;;;;;;;5.97;2.40;;;;;;;-2.69;96.88;99461.53;5027242;28;20045;-50
2022/04/03 04:56:33;;;;;;;5.80;2.90;;;;;;;-2.60;96.48;99471.97;5026973;28;20444;-50
2022/04/03 04:59:18;;;;;;;10.45;2.92;;;;;;;-2.47;95.89;99473.13;5027311;28;20456;-50
2022/04/03 05:02:05;;;;;;;5.95;3.45;;;;;;;-2.47;95.90;99480.81;5026949;28;20050;-50
2022/04/03 05:04:50;;;;;;;6.60;3.00;;;;;;;-2.48;95.94;99479.09;5027500;28;20045;-50
2022/04/03 05:07:35;;;;;;;6.57;3.17;;;;;;;-2.40;95.37;99482.69;5028010;28;20037;-50
2022/04/03 05:10:20;;;;;;;7.95;3.22;;;;;;;-2.44;95.94;99488.56;5027858;28;20057;-50
2022/04/03 05:13:09;;;;;;;7.68;3.38;;;;;;;-2.41;95.80;99488.63;5027896;28;20379;-50
2022/04/03 05:15:53;;;;;;;8.63;3.20;;;;;;;-2.40;96.57;99491.25;5027392;28;20049;-50
2022/04/03 05:18:39;;;;;;;8.32;3.08;;;;;;;-2.35;96.70;99493.91;5027306;28;20050;-50
2022/04/03 05:21:24;;;;;;;7.28;2.90;;;;;;;-2.28;95.52;99500.03;5027497;28;20147;-50
2022/04/03 05:24:08;;;;;;;7.15;3.08;;;;;;;-2.08;94.91;99503.91;5026020;28;20054;-50
2022/04/03 05:26:53;;;;;;;6.00;3.08;;;;;;;-2.16;94.53;99500.31;5026894;28;20041;-50
2022/04/03 05:29:38;;;;;;;5.35;2.65;;;;;;;-1.83;92.61;99509.53;5027480;28;20053;-50
2022/04/03 05:32:27;;;;;;;8.63;2.92;;;;;;;-1.61;91.98;99510.81;5026265;28;20060;-50
2022/04/03 05:35:13;;;;;;;6.97;2.97;;;;;;;-1.42;90.64;99503.47;5027371;28;20041;-50
2022/04/03 05:37:57;;;;;;;11.55;3.40;;;;;;;-1.21;88.85;99505.53;5026995;28;20714;-50
2022/04/03 05:40:42;;;;;;;9.75;3.78;;;;;;;-1.32;88.40;99511.34;5025154;28;20061;-50
2022/04/03 05:43:26;;;;;;;8.18;3.65;;;;;;;-1.21;87.59;99517.53;5026706;28;20049;-50
2022/04/03 05:46:11;;;;;;;7.20;3.15;;;;;;;-0.89;86.42;99518.09;5027571;28;20070;-50
2022/04/03 05:48:55;;;;;;;7.28;3.47;;;;;;;-0.85;86.05;99521.56;5026447;28;20053;-50
2022/04/03 05:51:40;;;;;;;8.25;3.10;;;;;;;-0.71;85.51;99522.69;5026469;28;20574;-51
2022/04/03 05:54:25;;;;;;;7.82;3.28;;;;;;;-0.71;85.02;99520.97;5026447;28;20481;-50
2022/04/03 05:57:10;;;;;;;10.02;3.38;;;;;;;-0.35;83.84;99531.78;5026176;28;20052;-50
2022/04/03 05:59:55;;;;;;;8.50;3.22;;;;;;;-0.30;82.00;99523.25;5026265;28;20049;-51
2022/04/03 06:02:50;;;;;;;8.75;3.80;;;;;;;-0.11;81.92;99529.53;5025910;28;20049;-50
2022/04/03 06:05:34;;;;;;;9.77;3.38;;;;;;;-0.07;81.03;99536.44;5025176;28;20672;-50
2022/04/03 06:08:19;;;;;;;6.05;2.65;;;;;;;0.14;80.21;99551.34;5026531;28;20049;-51
2022/04/03 06:11:03;;;;;;;9.23;4.10;;;;;;;0.20;79.23;99546.25;5026367;28;20052;-51
2022/04/03 06:13:48;;;;;;;11.50;4.03;;;;;;;0.23;79.15;99548.03;5026766;28;21496;-50
2022/04/03 06:16:33;;;;;;;10.88;4.03;;;;;;;0.42;77.55;99549.06;5027341;28;20357;-51
2022/04/03 06:19:17;;;;;;;7.75;4.13;;;;;;;0.31;77.52;99551.53;5026329;28;20069;-50
2022/04/03 06:22:01;;;;;;;9.57;3.95;;;;;;;0.22;79.16;99557.44;5026174;28;20534;-50
2022/04/03 06:24:46;;;;;;;10.00;4.38;;;;;;;0.43;78.35;99562.00;5027917;28;20045;-51
2022/04/03 06:27:30;;;;;;;6.75;3.88;;;;;;;0.55;77.24;99568.13;5025547;28;20053;-50
2022/04/03 06:30:15;;;;;;;10.25;4.15;;;;;;;0.51;77.49;99569.81;5026765;28;20049;-50
2022/04/03 06:32:59;;;;;;;7.93;3.70;;;;;;;0.66;76.65;99574.28;5026865;28;20536;-50
2022/04/03 06:35:44;;;;;;;9.20;4.10;;;;;;;0.58;77.63;99569.03;5027103;28;20057;-51
2022/04/03 06:38:29;;;;;;;12.40;3.83;;;;;;;0.51;77.73;99580.13;5026380;28;20400;-50
2022/04/03 06:41:14;;;;;;;8.82;4.22;;;;;;;0.43;77.82;99584.34;5026850;28;20049;-49
2022/04/03 06:43:59;;;;;;;15.05;7.05;;;;;;;0.69;77.65;99588.06;5026713;28;20092;-50
2022/04/03 06:46:44;;;;;;;8.60;4.20;;;;;;;1.26;75.72;99585.19;5026746;28;20393;-50
2022/04/03 06:49:29;;;;;;;7.32;3.35;;;;;;;1.43;72.53;99586.22;5026295;28;20099;-50
2022/04/03 06:52:14;;;;;;;18.33;7.55;;;;;;;1.50;73.06;99589.72;5025902;28;20053;-50
2022/04/03 06:54:59;;;;;;;151.25;63.40;;;;;;;2.03;71.93;99584.91;5027176;28;20124;-50
2022/04/03 06:57:44;;;;;;;24.52;11.40;;;;;;;1.85;69.91;99590.84;5026283;28;20053;-50
2022/04/03 07:00:28;;;;;;;191.48;52.63;;;;;;;2.25;69.51;99593.63;5026164;28;20110;-50
2022/04/03 07:03:13;;;;;;;61.95;19.45;;;;;;;2.48;67.81;99596.34;5024166;28;20052;-49
2022/04/03 07:05:57;;;;;;;91.82;24.52;;;;;;;2.65;66.89;99593.81;5024216;28;20049;-51
2022/04/03 07:08:43;;;;;;;134.40;33.72;;;;;;;2.96;66.64;99599.94;5024021;28;20050;-50
2022/04/03 07:11:28;;;;;;;36.20;11.77;;;;;;;2.93;65.04;99605.13;5023791;28;20045;-51
2022/04/03 07:14:12;;;;;;;62.55;17.48;;;;;;;3.37;65.89;99603.44;5023503;28;20045;-50
2022/04/03 07:16:57;;;;;;;19.15;8.40;;;;;;;3.59;63.70;99612.97;5023755;28;20037;-51
2022/04/03 07:19:41;;;;;;;186.85;51.60;;;;;;;4.01;63.01;99606.00;5021393;28;20488;-51
2022/04/03 07:22:25;;;;;;;20.90;7.65;;;;;;;3.73;61.72;99600.84;5023114;28;20072;-50
2022/04/03 07:25:12;;;;;;;20.05;8.40;;;;;;;4.29;62.15;99613.72;5023533;28;20384;-51
2022/04/03 07:27:56;;;;;;;21.80;10.05;;;;;;;4.60;60.36;99612.75;5022101;28;20099;-51
2022/04/03 07:30:42;;;;;;;56.70;21.38;;;;;;;4.95;58.80;99608.28;5023324;28;20041;-50
2022/04/03 07:33:26;;;;;;;17.95;8.95;;;;;;;4.87;58.21;99618.69;5022919;28;20045;-51
2022/04/03 07:36:11;;;;;;;12.93;6.63;;;;;;;4.87;57.42;99616.09;5022828;28;20046;-50
2022/04/03 07:38:55;;;;;;;9.55;3.80;;;;;;;4.47;58.09;99623.19;5021992;28;20053;-51
2022/04/03 07:41:40;;;;;;;11.40;6.05;;;;;;;4.30;59.04;99625.84;5021980;28;20384;-50
2022/04/03 07:44:24;;;;;;;15.95;6.05;;;;;;;3.96;59.45;99618.09;5023807;28;20049;-50
2022/04/03 07:47:09;;;;;;;10.05;4.93;;;;;;;4.15;59.25;99624.97;5023129;28;20049;-51
2022/04/03 07:49:53;;;;;;;12.52;5.97;;;;;;;4.01;59.63;99621.56;5022389;28;20071;-50
2022/04/03 07:52:38;;;;;;;10.27;4.30;;;;;;;3.89;58.95;99626.75;5021878;28;20042;-51
2022/04/03 07:55:23;;;;;;;7.95;4.78;;;;;;;3.72;60.37;99630.22;5022401;28;20046;-50
2022/04/03 07:58:07;;;;;;;13.00;5.88;;;;;;;3.71;60.14;99636.28;5022113;28;20056;-50
2022/04/03 08:00:51;;;;;;;9.15;4.45;;;;;;;3.77;59.91;99638.00;5022686;28;20061;-51
2022/04/03 08:03:36;;;;;;;7.15;4.25;;;;;;;3.48;59.26;99640.59;5022158;28;20112;-50
2022/04/03 08:06:20;;;;;;;13.43;7.72;;;;;;;3.49;58.57;99640.56;5026467;28;20385;-51
2022/04/03 08:09:07;;;;;;;8.90;4.40;;;;;;;3.25;57.24;99643.13;5025649;28;20057;-50
2022/04/03 08:11:51;;;;;;;11.35;5.63;;;;;;;3.23;60.42;99645.72;5027479;28;20476;-50
2022/04/03 08:14:36;;;;;;;7.57;3.85;;;;;;;4.10;58.43;99641.44;5027210;28;20536;-50
2022/04/03 08:17:20;;;;;;;7.22;3.70;;;;;;;4.48;58.24;99643.06;5026584;28;20437;-50
2022/04/03 08:20:10;;;;;;;14.27;7.07;;;;;;;5.07;53.34;99644.53;5026318;28;20049;-51
2022/04/03 08:22:55;;;;;;;9.07;4.85;;;;;;;5.34;52.50;99646.13;5023366;28;20081;-50
2022/04/03 08:25:39;;;;;;;9.55;4.50;;;;;;;5.59;52.04;99639.91;5024857;28;20049;-50
2022/04/03 08:28:23;;;;;;;12.13;5.68;;;;;;;5.38;50.57;99640.03;5024662;28;20033;-51
2022/04/03 08:31:08;;;;;;;35.17;11.93;;;;;;;5.10;50.80;99648.00;5026391;28;20384;-50
2022/04/03 08:33:52;;;;;;;7.40;2.70;;;;;;;4.22;51.00;99647.47;5026160;28;20463;-51
2022/04/03 08:36:37;;;;;;;12.27;4.63;;;;;;;4.06;51.94;99650.91;5026691;28;20037;-50
2022/04/03 08:39:21;;;;;;;7.63;4.75;;;;;;;3.64;51.27;99663.06;5025637;28;20076;-51
2022/04/03 08:42:06;;;;;;;8.98;4.32;;;;;;;3.66;49.44;99657.84;5027591;28;20096;-51
2022/04/03 08:44:50;;;;;;;8.65;4.47;;;;;;;3.70;49.88;99657.84;5026072;28;20048;-51
2022/04/03 08:47:44;;;;;;;5.38;2.15;;;;;;;3.00;49.04;99663.78;5026193;28;20049;-51
2022/04/03 08:50:36;;;;;;;7.35;3.13;;;;;;;3.13;50.39;99663.81;5025544;28;20463;-50
2022/04/03 08:53:24;;;;;;;29.87;10.40;;;;;;;3.61;50.22;99665.63;5023708;28;20049;-50
2022/04/03 08:56:09;;;;;;;12.48;4.85;;;;;;;3.89;48.30;99668.22;5024018;28;20373;-51
2022/04/03 08:58:54;;;;;;;61.75;19.15;;;;;;;3.99;47.97;99665.59;5026162;28;20056;-51
2022/04/03 09:01:38;;;;;;;47.80;15.80;;;;;;;3.84;47.52;99673.41;5024382;28;20485;-50
2022/04/03 09:04:22;;;;;;;26.02;10.52;;;;;;;3.73;48.40;99663.03;5025141;28;20049;-51
2022/04/03 09:07:07;;;;;;;54.13;18.85;;;;;;;3.84;48.20;99663.06;5026338;28;20144;-50
2022/04/03 09:10:08;;;;;;;10.77;4.70;;;;;;;3.39;49.34;99664.72;5025390;28;20719;-50
2022/04/03 09:12:52;;;;;;;27.48;10.85;;;;;;;3.69;49.39;99669.06;5025068;28;20136;-50
2022/04/03 09:15:38;;;;;;;31.65;13.27;;;;;;;3.78;45.90;99664.78;5025650;28;20041;-50
2022/04/03 09:18:22;;;;;;;16.58;7.65;;;;;;;3.80;46.01;99663.03;5024780;28;20897;-50
2022/04/03 09:21:15;;;;;;;9.18;4.88;;;;;;;3.35;45.69;99667.28;5024736;28;20045;-50
2022/04/03 09:24:12;;;;;;;10.85;5.25;;;;;;;3.82;45.33;99664.75;5020584;28;20050;-51
2022/04/03 09:27:02;;;;;;;16.50;7.05;;;;;;;3.72;45.48;99681.19;5024738;28;20082;-50
2022/04/03 09:29:46;;;;;;;9.32;5.15;;;;;;;3.53;46.49;99677.69;5024046;28;20404;-50
2022/04/03 09:32:31;;;;;;;5.45;2.90;;;;;;;3.30;45.66;99674.22;5021425;28;20121;-50
2022/04/03 09:35:19;;;;;;;7.40;3.92;;;;;;;3.44;46.79;99677.69;5024589;28;20073;-50
2022/04/03 09:38:07;;;;;;;4.60;2.63;;;;;;;3.56;47.06;99688.06;5024524;28;20091;-50
2022/04/03 09:40:52;;;;;;;44.55;13.05;;;;;;;3.44;46.66;99673.34;5022457;28;20112;-50
2022/04/03 09:43:40;;;;;;;161.80;54.38;;;;;;;3.37;47.02;99688.88;5024953;28;20061;-50
2022/04/03 09:46:29;;;;;;;62.95;22.38;;;;;;;3.26;48.43;99684.56;5023870;28;20053;-50
2022/04/03 09:49:22;;;;;;;261.02;83.90;;;;;;;3.41;47.13;99688.03;5023719;28;20045;-50
2022/04/03 09:52:07;;;;;;;45.85;15.77;;;;;;;3.46;45.88;99686.31;5025362;28;20053;-50
2022/04/03 09:54:51;;;;;;;109.47;43.55;;;;;;;3.96;45.38;99677.72;5023949;28;20049;-50
2022/04/03 09:57:35;;;;;;;109.45;44.13;;;;;;;4.69;44.39;99684.50;5026053;28;20053;-50
2022/04/03 10:00:38;;;;;;;13.05;7.13;;;;;;;5.16;42.71;99684.28;5021403;28;20056;-51
2022/04/03 10:03:23;;;;;;;9.02;4.55;;;;;;;5.42;41.36;99682.44;5023760;28;20056;-50
2022/04/03 10:06:09;;;;;;;63.38;33.67;;;;;;;5.36;41.06;99671.22;5023871;28;20045;-51
2022/04/03 10:08:54;;;;;;;43.17;22.10;;;;;;;5.33;39.93;99686.81;5026251;28;20480;-51
2022/04/03 10:11:40;;;;;;;9.85;6.07;;;;;;;4.80;41.40;99682.72;5023012;28;20452;-50
2022/04/03 10:14:24;;;;;;;12.75;8.05;;;;;;;4.80;41.54;99679.28;5024103;28;20099;-50
2022/04/03 10:17:10;;;;;;;6.72;5.13;;;;;;;4.90;40.72;99688.75;5023763;28;20663;-50
2022/04/03 10:19:54;;;;;;;15.65;7.07;;;;;;;4.84;41.97;99684.47;5023220;28;20131;-50
2022/04/03 10:22:39;;;;;;;25.38;11.13;;;;;;;4.60;42.57;99682.81;5023260;28;20045;-50
2022/04/03 10:25:28;;;;;;;14.20;8.73;;;;;;;4.21;43.90;99682.00;5022579;28;20045;-50
2022/04/03 10:28:17;;;;;;;15.38;7.28;;;;;;;4.44;45.18;99673.34;5023622;28;20735;-50
2022/04/03 10:31:08;;;;;;;10.57;4.72;;;;;;;4.61;44.89;99673.28;5024423;28;20426;-50
2022/04/03 10:33:53;;;;;;;6.03;2.42;;;;;;;4.61;44.49;99686.25;5023947;28;20053;-50
2022/04/03 10:36:38;;;;;;;5.35;2.92;;;;;;;4.50;44.96;99685.44;5022744;28;20069;-50
2022/04/03 10:39:26;;;;;;;4.45;2.60;;;;;;;4.65;44.19;99690.59;5025693;28;20110;-50
2022/04/03 10:42:16;;;;;;;7.10;2.38;;;;;;;4.53;44.47;99683.69;5023524;28;20041;-50
2022/04/03 10:45:13;;;;;;;4.50;2.90;;;;;;;4.47;46.04;99686.28;5023524;28;20616;-50
2022/04/03 10:48:19;;;;;;;15.02;8.18;;;;;;;4.40;46.07;99688.03;5023104;28;20045;-50
2022/04/03 10:51:09;;;;;;;4.80;2.58;;;;;;;4.59;45.16;99688.00;5022137;28;20049;-50
2022/04/03 10:54:03;;;;;;;3.55;2.33;;;;;;;4.97;44.83;99680.06;5020738;28;20652;-50
2022/04/03 10:56:47;;;;;;;;;;;;;;;5.53;44.28;99678.06;5022507;28;20057;-50
2022/04/03 10:59:32;;;;;;;6.25;2.08;;;;;;;6.19;41.55;99668.00;5022928;28;20214;-49
2022/04/03 11:02:16;;;;;;;10.02;4.93;;;;;;;6.00;40.83;99671.66;5021273;28;20045;-50
2022/04/03 11:05:22;;;;;;;10.85;4.88;;;;;;;5.58;41.01;99671.94;5021596;28;20045;-49
2022/04/03 11:08:07;;;;;;;6.47;3.70;;;;;;;5.31;41.67;99660.00;5022365;28;20382;-50
2022/04/03 11:10:53;;;;;;;10.93;5.20;;;;;;;5.11;41.51;99672.22;5023474;28;20053;-50
2022/04/03 11:13:39;;;;;;;14.35;6.32;;;;;;;5.10;42.95;99665.28;5022374;28;20042;-50
2022/04/03 11:16:26;;;;;;;6.68;3.13;;;;;;;5.25;42.61;99678.19;5023358;28;20494;-50
2022/04/03 11:19:11;;;;;;;9.38;4.20;;;;;;;5.14;41.78;99678.28;5023124;28;20726;-50
2022/04/03 11:21:56;;;;;;;10.77;3.25;;;;;;;4.96;41.73;99674.88;5023117;28;20045;-50
2022/04/03 11:24:41;;;;;;;11.23;4.40;;;;;;;5.14;41.94;99667.88;5021530;28;20053;-50
2022/04/03 11:27:26;;;;;;;12.63;6.05;;;;;;;5.32;41.62;99679.03;5021846;28;20606;-50
2022/04/03 11:30:11;;;;;;;7.22;2.95;;;;;;;5.11;40.71;99673.09;5023147;28;20049;-50
2022/04/03 11:32:56;;;;;;;16.42;6.10;;;;;;;5.42;39.69;99662.50;5023260;28;20045;-50
2022/04/03 11:35:42;;;;;;;12.95;5.55;;;;;;;5.13;39.85;99676.56;5023664;28;20046;-50
2022/04/03 11:38:33;;;;;;;12.70;5.75;;;;;;;5.03;39.86;99672.25;5022472;28;20146;-50
2022/04/03 11:41:31;;;;;;;11.73;4.63;;;;;;;5.51;39.63;99667.66;5026175;28;20476;-50
2022/04/03 11:44:16;;;;;;;3.03;1.55;;;;;;;5.78;37.76;99661.38;5023985;28;20494;-51
2022/04/03 11:47:02;;;;;;;10.32;4.57;;;;;;;6.20;37.03;99656.72;5026028;28;20107;-50
2022/04/03 11:50:02;;;;;;;10.88;4.57;;;;;;;6.38;37.72;99655.69;5025193;28;20188;-50
2022/04/03 11:52:46;;;;;;;6.95;2.92;;;;;;;5.79;38.03;99660.53;5026474;28;20049;-49
2022/04/03 11:55:35;;;;;;;7.97;3.30;;;;;;;5.77;38.76;99654.47;5021918;28;20134;-50
2022/04/03 11:58:20;;;;;;;11.05;5.40;;;;;;;5.82;39.02;99663.09;5019065;28;20465;-50
2022/04/03 12:01:04;;;;;;;16.60;6.50;;;;;;;5.91;40.11;99664.75;5024073;28;20720;-50
2022/04/03 12:03:48;;;;;;;12.70;5.18;;;;;;;5.90;40.28;99664.78;5022564;28;20380;-49
2022/04/03 12:06:33;;;;;;;8.15;3.38;;;;;;;5.61;40.45;99665.84;5025595;28;20573;-50
2022/04/03 12:09:21;;;;;;;15.93;5.57;;;;;;;5.81;40.95;99655.31;5025942;28;20480;-50
2022/04/03 12:12:06;;;;;;;10.05;3.30;;;;;;;5.75;39.46;99661.44;5026080;28;20053;-50
2022/04/03 12:14:51;;;;;;;12.75;4.55;;;;;;;5.63;39.12;99664.97;5023055;28;20041;-50
2022/04/03 12:17:40;;;;;;;18.60;6.88;;;;;;;5.51;40.12;99664.19;5024798;28;20450;-51
2022/04/03 12:20:26;;;;;;;11.13;4.40;;;;;;;5.22;41.26;99669.56;5023636;28;20045;-50
2022/04/03 12:23:10;;;;;;;7.28;3.67;;;;;;;5.03;42.06;99666.19;5024869;28;20049;-50
2022/04/03 12:25:55;;;;;;;20.27;8.55;;;;;;;4.95;43.21;99674.03;5024976;28;20056;-50
2022/04/03 12:28:39;;;;;;;26.13;11.85;;;;;;;5.01;43.01;99666.22;5024217;28;20057;-50
2022/04/03 12:31:31;;;;;;;158.68;65.32;;;;;;;4.98;42.58;99670.56;5025843;28;20038;-50
2022/04/03 12:34:16;;;;;;;30.90;12.18;;;;;;;4.91;41.71;99665.41;5024446;28;20037;-50
2022/04/03 12:37:03;;;;;;;104.32;62.58;;;;;;;5.20;43.15;99658.31;5025014;28;20120;-50
2022/04/03 12:39:51;;;;;;;15.95;8.48;;;;;;;5.40;40.56;99659.09;5024834;28;20037;-50
2022/04/03 12:42:40;;;;;;;12.02;6.82;;;;;;;5.49;38.84;99645.16;5025914;28;20492;-49
2022/04/03 12:45:25;;;;;;;16.25;7.63;;;;;;;5.83;38.81;99645.75;5023881;28;20041;-49
2022/04/03 12:48:09;;;;;;;26.02;11.05;;;;;;;5.94;39.02;99643.94;5024724;28;20084;-49
2022/04/03 12:50:54;;;;;;;20.80;9.50;;;;;;;5.55;40.31;99642.50;5024228;28;20049;-51
2022/04/03 12:53:49;;;;;;;34.03;14.13;;;;;;;5.72;40.34;99650.16;5025704;28;20041;-50
2022/04/03 12:58:24;;;;;;;18.02;8.95;;;;;;;5.90;39.95;99646.56;5024472;28;20535;-50
2022/04/03 12:59:38;;;;;;;16.20;5.68;;;;;;;5.52;39.35;99630.41;5024764;28;21400;-50